createdAt,value
2018-04-18T00:00:09.199Z,14.03
2018-04-18T00:00:49.765Z,14.07
2018-04-18T00:01:30.340Z,14.07
2018-04-18T00:02:10.925Z,14.08
2018-04-18T00:02:51.479Z,14.07
2018-04-18T00:03:32.112Z,13.99
2018-04-18T00:04:12.628Z,13.99
2018-04-18T00:04:53.193Z,14.03
2018-04-18T00:05:33.798Z,14.03
2018-04-18T00:06:14.358Z,14.03
2018-04-18T00:06:54.940Z,13.97
2018-04-18T00:07:35.488Z,14
2018-04-18T00:08:16.049Z,13.97
2018-04-18T00:08:56.624Z,13.92
2018-04-18T00:10:54.540Z,13.9
2018-04-18T00:11:35.091Z,14.04
2018-04-18T00:12:15.662Z,13.92
2018-04-18T00:12:56.206Z,13.9
2018-04-18T00:13:36.773Z,13.93
2018-04-18T00:14:17.346Z,13.95
2018-04-18T00:14:57.894Z,13.95
2018-04-18T00:15:38.452Z,14.03
2018-04-18T00:16:19.008Z,13.9
2018-04-18T00:16:59.564Z,13.92
2018-04-18T00:17:40.105Z,13.86
2018-04-18T00:18:20.669Z,13.9
2018-04-18T00:19:01.236Z,13.95
2018-04-18T00:19:41.791Z,13.89
2018-04-18T00:20:22.347Z,13.89
2018-04-18T00:21:02.906Z,13.92
2018-04-18T00:21:43.473Z,13.92
2018-04-18T00:22:24.023Z,13.9
2018-04-18T00:23:04.575Z,13.92
2018-04-18T00:23:45.128Z,13.85
2018-04-18T00:24:25.685Z,13.89
2018-04-18T00:25:06.248Z,13.86
2018-04-18T00:25:49.770Z,13.89
2018-04-18T00:26:30.335Z,13.97
2018-04-18T00:27:10.900Z,13.92
2018-04-18T00:27:51.475Z,13.92
2018-04-18T00:28:32.063Z,13.95
2018-04-18T00:29:12.636Z,13.9
2018-04-18T00:29:53.201Z,13.9
2018-04-18T00:30:33.770Z,13.92
2018-04-18T00:31:14.397Z,13.93
2018-04-18T00:31:54.979Z,13.9
2018-04-18T00:32:35.582Z,13.89
2018-04-18T00:33:16.166Z,13.9
2018-04-18T00:33:56.744Z,13.87
2018-04-18T00:34:37.291Z,13.92
2018-04-18T00:35:17.863Z,13.93
2018-04-18T00:35:58.430Z,13.86
2018-04-18T00:36:39.070Z,13.92
2018-04-18T00:37:19.671Z,13.93
2018-04-18T00:38:00.188Z,13.92
2018-04-18T00:38:40.746Z,13.97
2018-04-18T00:39:21.302Z,13.93
2018-04-18T00:40:01.862Z,13.92
2018-04-18T00:40:42.415Z,13.89
2018-04-18T00:41:23.042Z,13.92
2018-04-18T00:42:03.611Z,13.9
2018-04-18T00:42:44.238Z,13.81
2018-04-18T00:43:24.808Z,13.77
2018-04-18T00:44:05.396Z,13.83
2018-04-18T00:44:45.998Z,13.77
2018-04-18T00:45:26.559Z,13.79
2018-04-18T00:46:07.123Z,13.77
2018-04-18T00:46:47.687Z,13.75
2018-04-18T00:47:28.247Z,13.77
2018-04-18T00:48:08.801Z,13.86
2018-04-18T00:48:49.369Z,13.83
2018-04-18T00:49:29.946Z,13.78
2018-04-18T00:50:10.514Z,13.78
2018-04-18T00:50:51.107Z,13.81
2018-04-18T00:51:31.670Z,13.72
2018-04-18T00:52:12.227Z,13.78
2018-04-18T00:52:52.794Z,13.75
2018-04-18T00:53:33.391Z,13.72
2018-04-18T00:54:13.946Z,13.75
2018-04-18T00:54:54.513Z,13.78
2018-04-18T00:55:35.138Z,13.77
2018-04-18T00:56:15.684Z,13.77
2018-04-18T00:56:56.252Z,13.72
2018-04-18T00:57:36.846Z,13.72
2018-04-18T00:58:17.411Z,13.71
2018-04-18T00:58:58.040Z,13.7
2018-04-18T00:59:38.595Z,13.71
2018-04-18T01:00:19.191Z,13.56
2018-04-18T01:00:59.764Z,13.7
2018-04-18T01:01:40.332Z,13.56
2018-04-18T01:02:20.909Z,13.68
2018-04-18T01:03:01.468Z,13.6
2018-04-18T01:03:42.022Z,13.6
2018-04-18T01:04:22.585Z,13.63
2018-04-18T01:05:03.199Z,13.63
2018-04-18T01:05:43.737Z,13.6
2018-04-18T01:06:24.297Z,13.6
2018-04-18T01:07:04.846Z,13.59
2018-04-18T01:07:45.433Z,13.62
2018-04-18T01:08:26.016Z,13.62
2018-04-18T01:09:06.580Z,13.57
2018-04-18T01:09:47.147Z,13.59
2018-04-18T01:10:27.714Z,13.6
2018-04-18T01:11:08.307Z,13.59
2018-04-18T01:11:48.851Z,13.57
2018-04-18T01:12:29.414Z,13.59
2018-04-18T01:13:09.986Z,13.56
2018-04-18T01:13:50.566Z,13.53
2018-04-18T01:14:31.143Z,13.5
2018-04-18T01:15:11.712Z,13.57
2018-04-18T01:15:52.275Z,13.54
2018-04-18T01:16:32.823Z,13.49
2018-04-18T01:17:13.395Z,13.53
2018-04-18T01:17:53.952Z,13.5
2018-04-18T01:18:34.556Z,13.53
2018-04-18T01:19:15.114Z,13.46
2018-04-18T01:19:55.675Z,13.47
2018-04-18T01:20:36.256Z,13.33
2018-04-18T01:21:16.818Z,13.42
2018-04-18T01:21:57.390Z,13.39
2018-04-18T01:22:37.968Z,13.44
2018-04-18T01:23:18.537Z,13.47
2018-04-18T01:23:59.119Z,13.41
2018-04-18T01:24:39.678Z,13.41
2018-04-18T01:25:20.245Z,13.44
2018-04-18T01:26:00.804Z,13.44
2018-04-18T01:26:41.374Z,13.41
2018-04-18T01:27:21.958Z,13.44
2018-04-18T01:28:02.518Z,13.42
2018-04-18T01:28:43.070Z,13.38
2018-04-18T01:29:23.631Z,13.39
2018-04-18T01:30:04.209Z,13.44
2018-04-18T01:30:44.774Z,13.38
2018-04-18T01:31:25.360Z,13.39
2018-04-18T01:32:05.923Z,13.35
2018-04-18T01:32:46.482Z,13.42
2018-04-18T01:33:27.040Z,13.42
2018-04-18T01:34:07.594Z,13.37
2018-04-18T01:34:48.156Z,13.41
2018-04-18T01:35:28.719Z,13.46
2018-04-18T01:36:09.301Z,13.33
2018-04-18T01:36:49.883Z,13.38
2018-04-18T01:37:30.420Z,13.37
2018-04-18T01:38:10.982Z,13.39
2018-04-18T01:38:51.537Z,13.38
2018-04-18T01:39:32.103Z,13.31
2018-04-18T01:40:12.691Z,13.35
2018-04-18T01:40:53.374Z,13.35
2018-04-18T01:41:33.925Z,13.37
2018-04-18T01:42:14.508Z,13.33
2018-04-18T01:42:55.110Z,13.38
2018-04-18T01:43:35.697Z,13.37
2018-04-18T01:44:16.244Z,13.31
2018-04-18T01:44:56.806Z,13.41
2018-04-18T01:45:37.385Z,13.41
2018-04-18T01:46:17.944Z,13.38
2018-04-18T01:46:58.506Z,13.31
2018-04-18T01:47:39.062Z,13.31
2018-04-18T01:48:19.618Z,13.35
2018-04-18T01:49:00.180Z,13.33
2018-04-18T01:49:40.751Z,13.39
2018-04-18T01:50:21.317Z,13.38
2018-04-18T01:51:01.876Z,13.31
2018-04-18T01:51:42.457Z,13.33
2018-04-18T01:52:23.035Z,13.35
2018-04-18T01:53:03.613Z,13.35
2018-04-18T01:53:44.212Z,13.3
2018-04-18T01:54:24.774Z,13.33
2018-04-18T01:55:05.342Z,13.37
2018-04-18T01:55:45.914Z,13.33
2018-04-18T01:56:26.465Z,13.22
2018-04-18T01:57:07.030Z,13.3
2018-04-18T01:57:47.630Z,13.27
2018-04-18T01:58:28.186Z,13.25
2018-04-18T01:59:08.754Z,13.13
2018-04-18T01:59:49.385Z,13.23
2018-04-18T02:00:30.024Z,13.27
2018-04-18T02:01:10.530Z,13.22
2018-04-18T02:01:51.114Z,13.23
2018-04-18T02:02:31.682Z,13.25
2018-04-18T02:03:12.237Z,13.25
2018-04-18T02:03:52.791Z,13.19
2018-04-18T02:04:33.348Z,13.18
2018-04-18T02:05:13.968Z,13.16
2018-04-18T02:05:54.526Z,13.19
2018-04-18T02:06:35.115Z,13.13
2018-04-18T02:07:15.669Z,13.05
2018-04-18T02:07:56.242Z,13.13
2018-04-18T02:08:36.803Z,13.11
2018-04-18T02:09:17.403Z,13.16
2018-04-18T02:09:57.992Z,13.08
2018-04-18T02:10:38.559Z,13.11
2018-04-18T02:11:19.123Z,13.08
2018-04-18T02:11:59.681Z,13.08
2018-04-18T02:12:40.238Z,13.16
2018-04-18T02:13:20.861Z,13.04
2018-04-18T02:14:01.451Z,13.11
2018-04-18T02:14:42.048Z,13.09
2018-04-18T02:15:22.625Z,13.09
2018-04-18T02:16:03.225Z,13.12
2018-04-18T02:16:43.806Z,13.09
2018-04-18T02:17:24.403Z,13.05
2018-04-18T02:18:04.995Z,13.05
2018-04-18T02:18:45.579Z,13.08
2018-04-18T02:19:26.143Z,13
2018-04-18T02:20:06.703Z,13.01
2018-04-18T02:20:47.261Z,13.04
2018-04-18T02:21:27.874Z,12.98
2018-04-18T02:22:08.451Z,13.03
2018-04-18T02:22:49.033Z,13.01
2018-04-18T02:23:29.652Z,13.01
2018-04-18T02:24:10.216Z,12.97
2018-04-18T02:24:50.791Z,12.98
2018-04-18T02:25:31.371Z,12.97
2018-04-18T02:26:11.947Z,12.95
2018-04-18T02:26:52.500Z,13
2018-04-18T02:27:33.063Z,12.95
2018-04-18T02:28:13.650Z,12.97
2018-04-18T02:28:54.216Z,12.95
2018-04-18T02:29:34.778Z,12.94
2018-04-18T02:30:15.341Z,12.94
2018-04-18T02:30:55.901Z,12.97
2018-04-18T02:31:36.453Z,13.01
2018-04-18T02:32:17.037Z,12.91
2018-04-18T02:32:57.598Z,12.93
2018-04-18T02:33:38.157Z,12.93
2018-04-18T02:34:18.738Z,12.93
2018-04-18T02:34:59.299Z,12.95
2018-04-18T02:35:39.862Z,12.86
2018-04-18T02:36:20.439Z,12.93
2018-04-18T02:37:01.006Z,12.94
2018-04-18T02:37:41.592Z,12.93
2018-04-18T02:38:22.152Z,12.82
2018-04-18T02:39:02.720Z,12.79
2018-04-18T02:39:43.279Z,12.86
2018-04-18T02:40:23.872Z,12.8
2018-04-18T02:41:04.445Z,12.87
2018-04-18T02:41:44.997Z,12.85
2018-04-18T02:42:25.559Z,12.8
2018-04-18T02:43:06.130Z,12.82
2018-04-18T02:43:46.685Z,12.86
2018-04-18T02:44:27.241Z,12.79
2018-04-18T02:45:07.802Z,12.83
2018-04-18T02:45:48.365Z,12.82
2018-04-18T02:46:28.920Z,12.82
2018-04-18T02:47:09.519Z,12.83
2018-04-18T02:47:50.084Z,12.7
2018-04-18T02:48:30.669Z,12.79
2018-04-18T02:49:11.253Z,12.87
2018-04-18T02:49:51.927Z,12.85
2018-04-18T02:50:32.523Z,12.73
2018-04-18T02:51:13.080Z,12.76
2018-04-18T02:51:53.671Z,12.72
2018-04-18T02:52:34.255Z,12.76
2018-04-18T02:53:14.823Z,12.79
2018-04-18T02:53:55.399Z,12.75
2018-04-18T02:54:35.954Z,12.73
2018-04-18T02:55:16.538Z,12.75
2018-04-18T02:55:57.095Z,12.7
2018-04-18T02:56:37.693Z,12.75
2018-04-18T02:57:18.269Z,12.72
2018-04-18T02:57:58.820Z,12.75
2018-04-18T02:58:39.396Z,12.8
2018-04-18T02:59:19.996Z,12.75
2018-04-18T03:00:00.550Z,12.73
2018-04-18T03:00:41.105Z,12.75
2018-04-18T03:01:21.675Z,12.73
2018-04-18T03:02:02.255Z,12.73
2018-04-18T03:02:42.881Z,12.76
2018-04-18T03:03:23.469Z,12.75
2018-04-18T03:04:04.064Z,12.7
2018-04-18T03:04:44.624Z,12.73
2018-04-18T03:05:25.175Z,12.7
2018-04-18T03:06:05.728Z,12.68
2018-04-18T03:06:46.312Z,12.79
2018-04-18T03:07:26.905Z,12.79
2018-04-18T03:08:07.467Z,12.73
2018-04-18T03:08:48.017Z,12.76
2018-04-18T03:09:28.583Z,12.61
2018-04-18T03:10:09.136Z,12.76
2018-04-18T03:10:49.706Z,12.65
2018-04-18T03:11:30.287Z,12.75
2018-04-18T03:12:10.867Z,12.72
2018-04-18T03:12:51.478Z,12.65
2018-04-18T03:13:32.033Z,12.61
2018-04-18T03:14:12.620Z,12.61
2018-04-18T03:14:53.184Z,12.7
2018-04-18T03:15:33.736Z,12.64
2018-04-18T03:16:14.301Z,12.6
2018-04-18T03:16:54.873Z,12.61
2018-04-18T03:17:35.429Z,12.58
2018-04-18T03:18:16.051Z,12.64
2018-04-18T03:18:56.612Z,12.64
2018-04-18T03:19:37.207Z,12.58
2018-04-18T03:20:17.793Z,12.58
2018-04-18T03:20:58.347Z,12.65
2018-04-18T03:21:38.908Z,12.65
2018-04-18T03:22:19.473Z,12.61
2018-04-18T03:23:00.053Z,12.67
2018-04-18T03:23:40.734Z,12.64
2018-04-18T03:24:21.271Z,12.54
2018-04-18T03:25:01.843Z,12.58
2018-04-18T03:25:42.480Z,12.6
2018-04-18T03:26:22.976Z,12.53
2018-04-18T03:27:03.544Z,12.58
2018-04-18T03:27:44.093Z,12.53
2018-04-18T03:28:24.661Z,12.54
2018-04-18T03:29:05.226Z,12.54
2018-04-18T03:29:45.853Z,12.53
2018-04-18T03:30:26.415Z,12.53
2018-04-18T03:31:06.991Z,12.49
2018-04-18T03:31:47.718Z,12.49
2018-04-18T03:32:28.298Z,12.54
2018-04-18T03:33:08.875Z,12.53
2018-04-18T03:33:49.439Z,12.55
2018-04-18T03:34:30.009Z,12.54
2018-04-18T03:35:10.612Z,12.55
2018-04-18T03:35:51.227Z,12.53
2018-04-18T03:36:31.722Z,12.53
2018-04-18T03:37:12.312Z,12.53
2018-04-18T03:37:52.868Z,12.55
2018-04-18T03:38:33.431Z,12.47
2018-04-18T03:39:14.005Z,12.49
2018-04-18T03:39:54.591Z,12.5
2018-04-18T03:40:35.179Z,12.47
2018-04-18T03:41:15.837Z,12.5
2018-04-18T03:41:56.470Z,12.5
2018-04-18T03:42:37.067Z,12.47
2018-04-18T03:43:17.623Z,12.45
2018-04-18T03:43:58.191Z,12.45
2018-04-18T03:44:38.747Z,12.49
2018-04-18T03:45:19.311Z,12.5
2018-04-18T03:45:59.875Z,12.49
2018-04-18T03:46:40.489Z,12.45
2018-04-18T03:47:21.088Z,12.42
2018-04-18T03:48:01.688Z,12.37
2018-04-18T03:48:42.267Z,12.46
2018-04-18T03:49:22.843Z,12.43
2018-04-18T03:50:03.412Z,12.36
2018-04-18T03:50:43.977Z,12.35
2018-04-18T03:51:24.558Z,12.35
2018-04-18T03:52:05.139Z,12.4
2018-04-18T03:52:45.826Z,12.43
2018-04-18T03:53:26.378Z,12.36
2018-04-18T03:54:06.968Z,12.39
2018-04-18T03:54:47.586Z,12.39
2018-04-18T03:55:28.153Z,12.43
2018-04-18T03:56:08.732Z,12.35
2018-04-18T03:56:49.297Z,12.35
2018-04-18T03:57:29.939Z,12.35
2018-04-18T03:58:10.519Z,12.35
2018-04-18T03:58:51.105Z,12.39
2018-04-18T03:59:31.655Z,12.35
2018-04-18T04:00:12.218Z,12.39
2018-04-18T04:00:52.800Z,12.36
2018-04-18T04:01:33.367Z,12.35
2018-04-18T04:02:13.946Z,12.37
2018-04-18T04:02:54.522Z,12.32
2018-04-18T04:03:35.081Z,12.37
2018-04-18T04:04:15.648Z,12.37
2018-04-18T04:04:56.255Z,12.27
2018-04-18T04:05:36.831Z,12.31
2018-04-18T04:06:17.414Z,12.32
2018-04-18T04:06:57.972Z,12.32
2018-04-18T04:07:38.541Z,12.35
2018-04-18T04:08:19.091Z,12.32
2018-04-18T04:08:59.652Z,12.32
2018-04-18T04:09:40.273Z,12.29
2018-04-18T04:10:20.831Z,12.35
2018-04-18T04:11:01.393Z,12.31
2018-04-18T04:11:41.964Z,12.35
2018-04-18T04:12:22.563Z,12.35
2018-04-18T04:13:03.137Z,12.36
2018-04-18T04:13:43.709Z,12.36
2018-04-18T04:14:24.265Z,12.36
2018-04-18T04:15:04.830Z,12.32
2018-04-18T04:15:45.399Z,12.35
2018-04-18T04:16:25.977Z,12.32
2018-04-18T04:17:06.554Z,12.36
2018-04-18T04:17:47.191Z,12.35
2018-04-18T04:18:27.774Z,12.35
2018-04-18T04:19:08.333Z,12.32
2018-04-18T04:19:48.899Z,12.39
2018-04-18T04:20:29.529Z,12.47
2018-04-18T04:21:10.091Z,12.47
2018-04-18T04:21:50.680Z,12.6
2018-04-18T04:22:31.311Z,12.58
2018-04-18T04:23:11.858Z,12.72
2018-04-18T04:23:52.445Z,12.85
2018-04-18T04:24:33.023Z,12.91
2018-04-18T04:25:13.585Z,12.97
2018-04-18T04:25:54.160Z,13.01
2018-04-18T04:26:34.748Z,13.11
2018-04-18T04:27:15.301Z,13.18
2018-04-18T04:27:55.889Z,13.2
2018-04-18T04:28:36.449Z,13.31
2018-04-18T04:29:17.022Z,13.41
2018-04-18T04:29:57.616Z,13.41
2018-04-18T04:30:38.183Z,13.41
2018-04-18T04:31:18.830Z,13.47
2018-04-18T04:31:59.412Z,13.49
2018-04-18T04:32:39.979Z,13.49
2018-04-18T04:33:20.543Z,13.54
2018-04-18T04:34:01.177Z,13.57
2018-04-18T04:34:41.773Z,13.59
2018-04-18T04:35:22.356Z,13.62
2018-04-18T04:36:02.916Z,13.74
2018-04-18T04:36:43.485Z,13.81
2018-04-18T04:37:24.041Z,13.9
2018-04-18T04:38:04.613Z,13.89
2018-04-18T04:38:45.200Z,13.92
2018-04-18T04:39:25.839Z,13.99
2018-04-18T04:40:06.476Z,14.08
2018-04-18T04:40:47.091Z,14.2
2018-04-18T04:41:27.638Z,14.22
2018-04-18T04:42:08.205Z,14.3
2018-04-18T04:42:48.760Z,14.36
2018-04-18T04:43:29.326Z,14.4
2018-04-18T04:44:09.933Z,14.45
2018-04-18T04:44:50.527Z,14.36
2018-04-18T04:45:31.040Z,14.53
2018-04-18T04:46:11.637Z,14.59
2018-04-18T04:46:52.248Z,14.53
2018-04-18T04:47:32.799Z,14.45
2018-04-18T04:48:13.448Z,14.48
2018-04-18T04:48:54.038Z,14.5
2018-04-18T04:49:34.609Z,14.54
2018-04-18T04:50:15.176Z,14.48
2018-04-18T04:50:55.751Z,14.58
2018-04-18T04:51:36.307Z,14.58
2018-04-18T04:52:16.868Z,14.65
2018-04-18T04:52:57.428Z,14.66
2018-04-18T04:53:37.981Z,14.68
2018-04-18T04:54:18.556Z,14.72
2018-04-18T04:54:59.137Z,14.69
2018-04-18T04:55:39.746Z,14.65
2018-04-18T04:56:20.358Z,14.62
2018-04-18T04:57:00.936Z,14.47
2018-04-18T04:57:41.480Z,14.47
2018-04-18T04:58:22.192Z,14.36
2018-04-18T04:59:02.818Z,14.26
2018-04-18T04:59:43.366Z,14.11
2018-04-18T05:00:23.940Z,14.04
2018-04-18T05:01:04.567Z,13.93
2018-04-18T05:01:46.039Z,13.87
2018-04-18T05:02:26.954Z,13.78
2018-04-18T05:03:07.700Z,13.75
2018-04-18T05:03:48.390Z,13.71
2018-04-18T05:04:28.987Z,13.65
2018-04-18T05:05:09.557Z,13.53
2018-04-18T05:05:50.187Z,13.42
2018-04-18T05:06:30.753Z,13.54
2018-04-18T05:07:11.731Z,13.6
2018-04-18T05:07:52.447Z,13.65
2018-04-18T05:08:33.367Z,13.67
2018-04-18T05:09:14.130Z,13.57
2018-04-18T05:09:54.697Z,13.59
2018-04-18T05:10:35.373Z,13.53
2018-04-18T05:11:15.939Z,13.47
2018-04-18T05:11:56.603Z,13.5
2018-04-18T05:12:37.454Z,13.38
2018-04-18T05:13:18.117Z,13.41
2018-04-18T05:13:58.730Z,13.46
2018-04-18T05:14:39.296Z,13.38
2018-04-18T05:15:19.852Z,13.38
2018-04-18T05:16:00.416Z,13.37
2018-04-18T05:16:41.024Z,13.39
2018-04-18T05:17:21.640Z,13.33
2018-04-18T05:18:02.218Z,13.31
2018-04-18T05:18:42.822Z,13.19
2018-04-18T05:19:23.381Z,13.2
2018-04-18T05:20:03.957Z,13.25
2018-04-18T05:20:44.593Z,13.2
2018-04-18T05:21:25.160Z,13.18
2018-04-18T05:22:05.735Z,13.12
2018-04-18T05:22:46.297Z,13.18
2018-04-18T05:23:26.866Z,13.2
2018-04-18T05:24:07.444Z,13.15
2018-04-18T05:24:48.051Z,13.13
2018-04-18T05:25:28.675Z,13.15
2018-04-18T05:26:09.249Z,13.08
2018-04-18T05:26:49.852Z,13.11
2018-04-18T05:27:30.575Z,13.08
2018-04-18T05:28:11.145Z,13.08
2018-04-18T05:28:51.716Z,13.22
2018-04-18T05:29:33.109Z,13.08
2018-04-18T05:30:13.788Z,13.23
2018-04-18T05:30:54.423Z,13.2
2018-04-18T05:31:34.994Z,13.31
2018-04-18T05:32:15.566Z,13.38
2018-04-18T05:32:56.199Z,13.42
2018-04-18T05:33:36.856Z,13.5
2018-04-18T05:34:17.428Z,13.6
2018-04-18T05:34:58.135Z,13.71
2018-04-18T05:35:38.714Z,13.95
2018-04-18T05:36:19.283Z,13.95
2018-04-18T05:36:59.863Z,14.05
2018-04-18T05:37:40.463Z,14.15
2018-04-18T05:38:21.020Z,14.28
2018-04-18T05:39:01.592Z,14.41
2018-04-18T05:39:42.138Z,14.45
2018-04-18T05:40:22.692Z,14.48
2018-04-18T05:41:03.268Z,14.58
2018-04-18T05:41:43.836Z,14.58
2018-04-18T05:42:24.407Z,14.69
2018-04-18T05:43:05.003Z,14.68
2018-04-18T05:43:45.573Z,14.72
2018-04-18T05:44:26.136Z,14.89
2018-04-18T05:45:06.749Z,14.86
2018-04-18T05:45:47.399Z,15
2018-04-18T05:46:27.975Z,14.94
2018-04-18T05:47:08.579Z,15.03
2018-04-18T05:47:49.147Z,15.09
2018-04-18T05:48:29.761Z,15.09
2018-04-18T05:49:10.359Z,15.18
2018-04-18T05:49:50.931Z,15.14
2018-04-18T05:50:31.496Z,15.07
2018-04-18T05:51:12.090Z,15.11
2018-04-18T05:51:52.668Z,15.09
2018-04-18T05:52:33.238Z,15.1
2018-04-18T05:53:13.808Z,15.09
2018-04-18T05:53:54.410Z,15.18
2018-04-18T05:54:34.987Z,15.29
2018-04-18T05:55:15.589Z,15.29
2018-04-18T05:55:56.128Z,15.28
2018-04-18T05:56:36.699Z,15.39
2018-04-18T05:57:17.271Z,15.39
2018-04-18T05:57:57.913Z,15.31
2018-04-18T05:58:38.462Z,15.42
2018-04-18T05:59:19.089Z,15.46
2018-04-18T05:59:59.644Z,15.46
2018-04-18T06:00:40.205Z,15.49
2018-04-18T06:01:20.830Z,15.47
2018-04-18T06:02:01.405Z,15.46
2018-04-18T06:02:41.972Z,15.55
2018-04-18T06:03:22.567Z,15.47
2018-04-18T06:04:03.135Z,15.52
2018-04-18T06:04:43.728Z,15.57
2018-04-18T06:05:24.289Z,15.55
2018-04-18T06:06:04.965Z,15.57
2018-04-18T06:06:45.580Z,15.54
2018-04-18T06:07:26.287Z,15.58
2018-04-18T06:08:06.852Z,15.59
2018-04-18T06:08:47.420Z,15.67
2018-04-18T06:09:27.967Z,15.64
2018-04-18T06:10:08.826Z,15.77
2018-04-18T06:10:49.777Z,15.77
2018-04-18T06:11:30.408Z,15.79
2018-04-18T06:12:11.044Z,15.8
2018-04-18T06:12:51.864Z,15.73
2018-04-18T06:13:32.470Z,15.84
2018-04-18T06:14:13.150Z,15.84
2018-04-18T06:14:53.811Z,15.84
2018-04-18T06:15:34.349Z,15.86
2018-04-18T06:16:14.932Z,15.88
2018-04-18T06:16:56.240Z,15.91
2018-04-18T06:17:36.945Z,15.84
2018-04-18T06:18:17.572Z,15.95
2018-04-18T06:18:58.325Z,15.94
2018-04-18T06:19:39.049Z,15.95
2018-04-18T06:20:19.652Z,15.98
2018-04-18T06:21:01.283Z,15.97
2018-04-18T06:21:41.867Z,15.91
2018-04-18T06:22:22.501Z,15.98
2018-04-18T06:23:03.268Z,16
2018-04-18T06:23:43.958Z,16.13
2018-04-18T06:24:24.592Z,16.2
2018-04-18T06:25:06.121Z,16.32
2018-04-18T06:25:46.681Z,16.38
2018-04-18T06:26:27.248Z,16.54
2018-04-18T06:27:07.871Z,16.57
2018-04-18T06:27:48.433Z,16.74
2018-04-18T06:28:28.998Z,16.69
2018-04-18T06:29:09.629Z,16.84
2018-04-18T06:29:50.179Z,17.05
2018-04-18T06:30:30.738Z,17.12
2018-04-18T06:31:11.302Z,17.19
2018-04-18T06:31:51.862Z,17.29
2018-04-18T06:32:32.428Z,17.38
2018-04-18T06:33:13.085Z,17.45
2018-04-18T06:33:53.679Z,17.56
2018-04-18T06:34:34.292Z,17.79
2018-04-18T06:35:14.890Z,17.8
2018-04-18T06:35:55.524Z,17.92
2018-04-18T06:36:36.055Z,17.98
2018-04-18T06:37:16.713Z,18.1
2018-04-18T06:37:57.352Z,18.22
2018-04-18T06:38:38.010Z,18.18
2018-04-18T06:39:18.603Z,18.33
2018-04-18T06:39:59.223Z,18.29
2018-04-18T06:40:40.126Z,18.33
2018-04-18T06:41:20.726Z,18.4
2018-04-18T06:42:01.287Z,18.45
2018-04-18T06:42:41.894Z,18.6
2018-04-18T06:43:22.568Z,18.65
2018-04-18T06:44:03.180Z,18.71
2018-04-18T06:44:43.745Z,18.78
2018-04-18T06:45:24.315Z,18.77
2018-04-18T06:46:04.887Z,18.75
2018-04-18T06:46:45.455Z,18.74
2018-04-18T06:47:26.040Z,18.81
2018-04-18T06:48:06.723Z,18.93
2018-04-18T06:48:47.294Z,18.86
2018-04-18T06:49:28.017Z,18.88
2018-04-18T06:50:08.588Z,18.96
2018-04-18T06:50:49.152Z,19
2018-04-18T06:51:29.735Z,19.09
2018-04-18T06:52:10.434Z,19.08
2018-04-18T06:52:51.077Z,19.19
2018-04-18T06:53:31.717Z,19.33
2018-04-18T06:54:12.421Z,19.33
2018-04-18T06:54:52.997Z,19.4
2018-04-18T06:55:33.588Z,19.49
2018-04-18T06:56:14.211Z,19.51
2018-04-18T06:56:54.741Z,19.55
2018-04-18T06:57:35.373Z,19.64
2018-04-18T06:58:15.982Z,19.64
2018-04-18T06:58:56.551Z,19.74
2018-04-18T06:59:37.130Z,19.73
2018-04-18T07:00:17.710Z,19.77
2018-04-18T07:00:58.315Z,19.91
2018-04-18T07:01:38.964Z,19.88
2018-04-18T07:02:19.580Z,19.89
2018-04-18T07:03:00.170Z,19.94
2018-04-18T07:03:40.782Z,19.85
2018-04-18T07:04:21.384Z,19.92
2018-04-18T07:05:01.966Z,19.94
2018-04-18T07:05:42.518Z,20
2018-04-18T07:06:23.085Z,20.02
2018-04-18T07:07:03.652Z,20.03
2018-04-18T07:07:44.227Z,20.09
2018-04-18T07:08:24.824Z,20.18
2018-04-18T07:09:05.475Z,20.21
2018-04-18T07:09:46.050Z,20.1
2018-04-18T07:10:26.621Z,20.21
2018-04-18T07:11:07.187Z,20.21
2018-04-18T07:11:47.751Z,20.25
2018-04-18T07:12:28.328Z,20.25
2018-04-18T07:13:08.912Z,20.32
2018-04-18T07:13:49.496Z,20.39
2018-04-18T07:14:30.094Z,20.41
2018-04-18T07:15:10.680Z,20.36
2018-04-18T07:15:51.250Z,20.47
2018-04-18T07:16:31.840Z,20.52
2018-04-18T07:17:12.462Z,20.58
2018-04-18T07:17:53.032Z,20.62
2018-04-18T07:18:33.593Z,20.65
2018-04-18T07:19:14.194Z,20.67
2018-04-18T07:19:54.760Z,20.75
2018-04-18T07:20:35.343Z,20.78
2018-04-18T07:21:15.943Z,20.81
2018-04-18T07:21:56.560Z,20.81
2018-04-18T07:22:37.172Z,20.92
2018-04-18T07:23:17.791Z,20.96
2018-04-18T07:23:58.395Z,20.99
2018-04-18T07:24:38.997Z,20.95
2018-04-18T07:25:19.591Z,21
2018-04-18T07:26:00.444Z,20.96
2018-04-18T07:26:41.016Z,21.07
2018-04-18T07:27:21.584Z,21.09
2018-04-18T07:28:02.230Z,21.05
2018-04-18T07:28:42.799Z,21.12
2018-04-18T07:29:23.382Z,21.09
2018-04-18T07:30:03.990Z,21.18
2018-04-18T07:30:44.594Z,21.27
2018-04-18T07:31:25.157Z,21.33
2018-04-18T07:32:05.810Z,21.42
2018-04-18T07:32:46.387Z,21.37
2018-04-18T07:33:26.947Z,21.48
2018-04-18T07:34:07.510Z,21.45
2018-04-18T07:34:48.089Z,21.51
2018-04-18T07:35:28.686Z,21.6
2018-04-18T07:36:09.250Z,21.62
2018-04-18T07:36:49.837Z,21.72
2018-04-18T07:37:30.432Z,21.69
2018-04-18T07:38:11.014Z,21.7
2018-04-18T07:38:51.621Z,21.79
2018-04-18T07:39:32.189Z,21.77
2018-04-18T07:40:12.809Z,21.88
2018-04-18T07:40:53.442Z,21.79
2018-04-18T07:41:34.044Z,21.91
2018-04-18T07:42:14.626Z,21.93
2018-04-18T07:42:55.230Z,21.88
2018-04-18T07:43:35.796Z,21.89
2018-04-18T07:44:16.372Z,21.96
2018-04-18T07:44:56.955Z,22.07
2018-04-18T07:45:37.550Z,22.07
2018-04-18T07:46:18.122Z,22.2
2018-04-18T07:46:58.685Z,22.13
2018-04-18T07:47:39.270Z,22.22
2018-04-18T07:48:19.916Z,22.26
2018-04-18T07:49:00.530Z,22.32
2018-04-18T07:49:41.111Z,22.28
2018-04-18T07:50:21.681Z,22.38
2018-04-18T07:51:02.273Z,22.47
2018-04-18T07:51:42.870Z,22.29
2018-04-18T07:52:23.450Z,22.33
2018-04-18T07:53:04.017Z,22.23
2018-04-18T07:53:44.637Z,22.23
2018-04-18T07:54:25.215Z,22.25
2018-04-18T07:55:05.780Z,22.18
2018-04-18T07:55:46.377Z,22.2
2018-04-18T07:56:26.940Z,22.18
2018-04-18T07:57:07.581Z,22.14
2018-04-18T07:57:48.147Z,22.18
2018-04-18T07:58:28.716Z,22.11
2018-04-18T07:59:09.307Z,22.04
2018-04-18T07:59:49.895Z,22.08
2018-04-18T08:00:30.485Z,21.99
2018-04-18T08:01:11.067Z,21.98
2018-04-18T08:01:51.675Z,21.98
2018-04-18T08:02:32.214Z,21.95
2018-04-18T08:03:12.790Z,21.93
2018-04-18T08:03:53.371Z,21.93
2018-04-18T08:04:33.955Z,21.76
2018-04-18T08:05:14.540Z,21.8
2018-04-18T08:05:55.142Z,21.92
2018-04-18T08:06:35.701Z,21.85
2018-04-18T08:07:16.272Z,21.83
2018-04-18T08:07:56.858Z,21.89
2018-04-18T08:08:37.470Z,21.89
2018-04-18T08:09:18.021Z,21.96
2018-04-18T08:09:58.620Z,21.96
2018-04-18T08:10:39.252Z,21.88
2018-04-18T08:11:19.841Z,21.88
2018-04-18T08:12:00.425Z,21.89
2018-04-18T08:12:40.993Z,21.91
2018-04-18T08:13:21.565Z,21.93
2018-04-18T08:14:02.156Z,21.93
2018-04-18T08:14:42.789Z,21.98
2018-04-18T08:15:23.527Z,21.91
2018-04-18T08:16:04.049Z,21.93
2018-04-18T08:16:44.637Z,21.88
2018-04-18T08:17:25.261Z,21.95
2018-04-18T08:18:05.850Z,22.07
2018-04-18T08:18:46.423Z,22.06
2018-04-18T08:19:26.992Z,22.17
2018-04-18T08:20:07.566Z,22.23
2018-04-18T08:20:48.182Z,22.17
2018-04-18T08:21:28.751Z,22.2
2018-04-18T08:22:09.404Z,22.14
2018-04-18T08:22:49.964Z,22.17
2018-04-18T08:23:30.546Z,22.06
2018-04-18T08:24:11.131Z,22.02
2018-04-18T08:24:51.699Z,21.93
2018-04-18T08:25:32.261Z,21.93
2018-04-18T08:26:12.845Z,21.98
2018-04-18T08:26:53.433Z,21.95
2018-04-18T08:27:34.015Z,21.95
2018-04-18T08:28:14.582Z,21.93
2018-04-18T08:28:55.140Z,21.92
2018-04-18T08:29:35.739Z,21.79
2018-04-18T08:30:16.346Z,21.83
2018-04-18T08:30:56.917Z,21.92
2018-04-18T08:31:37.479Z,21.88
2018-04-18T08:32:18.074Z,21.77
2018-04-18T08:32:58.628Z,21.82
2018-04-18T08:33:39.226Z,21.85
2018-04-18T08:34:19.780Z,21.85
2018-04-18T08:35:00.367Z,21.69
2018-04-18T08:35:40.944Z,21.64
2018-04-18T08:36:21.515Z,21.69
2018-04-18T08:37:02.070Z,21.7
2018-04-18T08:37:42.673Z,21.76
2018-04-18T08:38:23.246Z,21.75
2018-04-18T08:39:03.809Z,21.7
2018-04-18T08:39:44.370Z,21.66
2018-04-18T08:40:24.953Z,21.62
2018-04-18T08:41:05.560Z,21.72
2018-04-18T08:41:46.159Z,21.73
2018-04-18T08:42:26.780Z,21.62
2018-04-18T08:43:07.438Z,21.61
2018-04-18T08:43:48.015Z,21.64
2018-04-18T08:44:28.580Z,21.69
2018-04-18T08:45:09.162Z,21.6
2018-04-18T08:45:49.776Z,21.6